sensor_id;sensor_type;location;lat;lon;timestamp;P1;durP1;ratioP1;P2;durP2;ratioP2
32918;SDS011;19280;42.646;21.150;2023-03-14T00:02:19;46.53;;;19.95;;
32918;SDS011;19280;42.646;21.150;2023-03-14T00:04:45;52.03;;;22.17;;
32918;SDS011;19280;42.646;21.150;2023-03-14T00:07:11;68.55;;;27.40;;
32918;SDS011;19280;42.646;21.150;2023-03-14T00:09:37;82.70;;;37.17;;
32918;SDS011;19280;42.646;21.150;2023-03-14T00:12:03;92.43;;;38.67;;
32918;SDS011;19280;42.646;21.150;2023-03-14T00:14:31;94.43;;;40.00;;
32918;SDS011;19280;42.646;21.150;2023-03-14T00:16:57;102.47;;;44.40;;
32918;SDS011;19280;42.646;21.150;2023-03-14T00:19:23;120.70;;;47.08;;
32918;SDS011;19280;42.646;21.150;2023-03-14T00:21:49;139.18;;;50.10;;
32918;SDS011;19280;42.646;21.150;2023-03-14T00:24:15;143.32;;;55.15;;
32918;SDS011;19280;42.646;21.150;2023-03-14T00:26:41;124.45;;;50.63;;
32918;SDS011;19280;42.646;21.150;2023-03-14T00:29:07;130.18;;;49.40;;
32918;SDS011;19280;42.646;21.150;2023-03-14T00:31:33;137.63;;;53.00;;
32918;SDS011;19280;42.646;21.150;2023-03-14T00:34:00;124.72;;;52.50;;
32918;SDS011;19280;42.646;21.150;2023-03-14T00:36:27;145.13;;;58.97;;
32918;SDS011;19280;42.646;21.150;2023-03-14T00:38:53;139.85;;;55.35;;
32918;SDS011;19280;42.646;21.150;2023-03-14T00:41:22;131.95;;;53.33;;
32918;SDS011;19280;42.646;21.150;2023-03-14T00:43:49;128.23;;;54.78;;
32918;SDS011;19280;42.646;21.150;2023-03-14T00:46:15;143.02;;;56.85;;
32918;SDS011;19280;42.646;21.150;2023-03-14T00:48:41;143.10;;;57.60;;
32918;SDS011;19280;42.646;21.150;2023-03-14T00:51:08;128.88;;;56.40;;
32918;SDS011;19280;42.646;21.150;2023-03-14T00:53:37;132.82;;;56.50;;
32918;SDS011;19280;42.646;21.150;2023-03-14T00:56:04;130.98;;;54.55;;
32918;SDS011;19280;42.646;21.150;2023-03-14T00:58:30;119.47;;;51.25;;
32918;SDS011;19280;42.646;21.150;2023-03-14T01:00:56;126.38;;;50.90;;
32918;SDS011;19280;42.646;21.150;2023-03-14T01:03:22;138.45;;;53.75;;
32918;SDS011;19280;42.646;21.150;2023-03-14T01:05:49;130.23;;;52.67;;
32918;SDS011;19280;42.646;21.150;2023-03-14T01:08:15;126.90;;;52.58;;
32918;SDS011;19280;42.646;21.150;2023-03-14T01:10:42;127.35;;;51.47;;
32918;SDS011;19280;42.646;21.150;2023-03-14T01:13:09;127.82;;;51.00;;
32918;SDS011;19280;42.646;21.150;2023-03-14T01:15:36;143.85;;;52.88;;
32918;SDS011;19280;42.646;21.150;2023-03-14T01:18:03;124.22;;;49.65;;
32918;SDS011;19280;42.646;21.150;2023-03-14T01:20:29;144.30;;;56.25;;
32918;SDS011;19280;42.646;21.150;2023-03-14T01:22:55;146.75;;;56.25;;
32918;SDS011;19280;42.646;21.150;2023-03-14T01:25:21;119.57;;;47.17;;
32918;SDS011;19280;42.646;21.150;2023-03-14T01:27:47;134.85;;;50.85;;
32918;SDS011;19280;42.646;21.150;2023-03-14T01:30:13;115.05;;;46.95;;
32918;SDS011;19280;42.646;21.150;2023-03-14T01:32:39;123.95;;;51.97;;
32918;SDS011;19280;42.646;21.150;2023-03-14T01:35:06;116.10;;;48.50;;
32918;SDS011;19280;42.646;21.150;2023-03-14T01:37:32;129.73;;;51.80;;
32918;SDS011;19280;42.646;21.150;2023-03-14T01:39:58;127.60;;;49.35;;
32918;SDS011;19280;42.646;21.150;2023-03-14T01:42:24;141.52;;;54.17;;
32918;SDS011;19280;42.646;21.150;2023-03-14T01:44:52;117.57;;;50.55;;
32918;SDS011;19280;42.646;21.150;2023-03-14T01:47:18;107.63;;;47.08;;
32918;SDS011;19280;42.646;21.150;2023-03-14T01:49:45;110.25;;;46.25;;
32918;SDS011;19280;42.646;21.150;2023-03-14T01:52:19;104.70;;;46.45;;
32918;SDS011;19280;42.646;21.150;2023-03-14T01:54:48;101.50;;;44.53;;
32918;SDS011;19280;42.646;21.150;2023-03-14T01:57:28;109.97;;;45.38;;
32918;SDS011;19280;42.646;21.150;2023-03-14T02:02:36;115.32;;;46.40;;
32918;SDS011;19280;42.646;21.150;2023-03-14T02:05:02;101.22;;;44.72;;
32918;SDS011;19280;42.646;21.150;2023-03-14T02:07:33;110.20;;;47.60;;
32918;SDS011;19280;42.646;21.150;2023-03-14T02:12:27;114.82;;;45.92;;
32918;SDS011;19280;42.646;21.150;2023-03-14T02:14:53;113.07;;;46.80;;
32918;SDS011;19280;42.646;21.150;2023-03-14T02:17:19;103.10;;;46.08;;
32918;SDS011;19280;42.646;21.150;2023-03-14T02:22:15;95.60;;;42.80;;
32918;SDS011;19280;42.646;21.150;2023-03-14T02:27:15;78.90;;;35.45;;
32918;SDS011;19280;42.646;21.150;2023-03-14T02:29:51;75.78;;;33.75;;
32918;SDS011;19280;42.646;21.150;2023-03-14T02:32:18;72.55;;;29.13;;
32918;SDS011;19280;42.646;21.150;2023-03-14T02:34:45;73.97;;;30.98;;
32918;SDS011;19280;42.646;21.150;2023-03-14T02:37:13;66.15;;;31.17;;
32918;SDS011;19280;42.646;21.150;2023-03-14T02:39:42;86.22;;;37.20;;
32918;SDS011;19280;42.646;21.150;2023-03-14T02:42:09;58.20;;;27.52;;
32918;SDS011;19280;42.646;21.150;2023-03-14T02:44:35;78.60;;;37.38;;
32918;SDS011;19280;42.646;21.150;2023-03-14T02:47:02;62.75;;;26.45;;
32918;SDS011;19280;42.646;21.150;2023-03-14T02:49:29;64.80;;;29.48;;
32918;SDS011;19280;42.646;21.150;2023-03-14T02:51:57;42.63;;;18.95;;
32918;SDS011;19280;42.646;21.150;2023-03-14T02:54:23;42.10;;;20.38;;
32918;SDS011;19280;42.646;21.150;2023-03-14T02:56:49;60.47;;;27.33;;
32918;SDS011;19280;42.646;21.150;2023-03-14T02:59:15;71.38;;;33.03;;
32918;SDS011;19280;42.646;21.150;2023-03-14T03:01:41;62.75;;;29.05;;
32918;SDS011;19280;42.646;21.150;2023-03-14T03:04:07;45.05;;;21.73;;
32918;SDS011;19280;42.646;21.150;2023-03-14T03:06:33;51.67;;;23.00;;
32918;SDS011;19280;42.646;21.150;2023-03-14T03:08:59;47.42;;;24.60;;
32918;SDS011;19280;42.646;21.150;2023-03-14T03:11:26;68.70;;;28.63;;
32918;SDS011;19280;42.646;21.150;2023-03-14T03:13:52;59.22;;;25.52;;
32918;SDS011;19280;42.646;21.150;2023-03-14T03:16:18;56.17;;;27.05;;
32918;SDS011;19280;42.646;21.150;2023-03-14T03:18:44;61.47;;;26.77;;
32918;SDS011;19280;42.646;21.150;2023-03-14T03:21:10;67.05;;;30.42;;
32918;SDS011;19280;42.646;21.150;2023-03-14T03:23:36;64.57;;;32.13;;
32918;SDS011;19280;42.646;21.150;2023-03-14T03:26:02;70.45;;;29.08;;
32918;SDS011;19280;42.646;21.150;2023-03-14T03:28:28;57.22;;;26.10;;
32918;SDS011;19280;42.646;21.150;2023-03-14T03:30:54;50.20;;;22.92;;
32918;SDS011;19280;42.646;21.150;2023-03-14T03:33:20;45.47;;;21.48;;
32918;SDS011;19280;42.646;21.150;2023-03-14T03:35:49;43.70;;;20.30;;
32918;SDS011;19280;42.646;21.150;2023-03-14T03:38:15;41.03;;;19.73;;
32918;SDS011;19280;42.646;21.150;2023-03-14T03:40:42;45.60;;;18.95;;
32918;SDS011;19280;42.646;21.150;2023-03-14T03:43:08;50.65;;;21.05;;
32918;SDS011;19280;42.646;21.150;2023-03-14T03:45:34;52.55;;;21.85;;
32918;SDS011;19280;42.646;21.150;2023-03-14T03:48:00;50.92;;;20.23;;
32918;SDS011;19280;42.646;21.150;2023-03-14T03:50:26;43.95;;;21.52;;
32918;SDS011;19280;42.646;21.150;2023-03-14T03:52:52;47.75;;;21.75;;
32918;SDS011;19280;42.646;21.150;2023-03-14T03:55:18;41.53;;;20.95;;
32918;SDS011;19280;42.646;21.150;2023-03-14T03:57:44;41.25;;;19.70;;
32918;SDS011;19280;42.646;21.150;2023-03-14T04:00:10;42.58;;;18.75;;
32918;SDS011;19280;42.646;21.150;2023-03-14T04:02:37;43.38;;;19.52;;
32918;SDS011;19280;42.646;21.150;2023-03-14T04:05:03;44.50;;;22.33;;
32918;SDS011;19280;42.646;21.150;2023-03-14T04:07:32;42.80;;;20.70;;
32918;SDS011;19280;42.646;21.150;2023-03-14T04:09:59;44.88;;;21.70;;
32918;SDS011;19280;42.646;21.150;2023-03-14T04:12:25;44.45;;;22.38;;
32918;SDS011;19280;42.646;21.150;2023-03-14T04:14:51;56.17;;;25.27;;
32918;SDS011;19280;42.646;21.150;2023-03-14T04:17:17;55.53;;;26.20;;
32918;SDS011;19280;42.646;21.150;2023-03-14T04:19:43;79.15;;;33.13;;
32918;SDS011;19280;42.646;21.150;2023-03-14T04:22:09;59.97;;;28.88;;
32918;SDS011;19280;42.646;21.150;2023-03-14T04:24:35;61.17;;;27.58;;
32918;SDS011;19280;42.646;21.150;2023-03-14T04:27:01;56.13;;;27.17;;
32918;SDS011;19280;42.646;21.150;2023-03-14T04:29:27;49.47;;;25.15;;
32918;SDS011;19280;42.646;21.150;2023-03-14T04:31:53;49.42;;;23.25;;
32918;SDS011;19280;42.646;21.150;2023-03-14T04:34:19;54.67;;;25.40;;
32918;SDS011;19280;42.646;21.150;2023-03-14T04:36:45;63.63;;;25.25;;
32918;SDS011;19280;42.646;21.150;2023-03-14T04:39:11;50.92;;;26.58;;
32918;SDS011;19280;42.646;21.150;2023-03-14T04:41:37;49.58;;;27.45;;
32918;SDS011;19280;42.646;21.150;2023-03-14T04:44:03;46.53;;;21.40;;
32918;SDS011;19280;42.646;21.150;2023-03-14T04:46:29;41.53;;;18.10;;
32918;SDS011;19280;42.646;21.150;2023-03-14T04:48:55;42.85;;;20.23;;
32918;SDS011;19280;42.646;21.150;2023-03-14T04:51:22;41.13;;;20.70;;
32918;SDS011;19280;42.646;21.150;2023-03-14T04:53:50;44.50;;;22.67;;
32918;SDS011;19280;42.646;21.150;2023-03-14T04:56:16;40.80;;;20.98;;
32918;SDS011;19280;42.646;21.150;2023-03-14T04:58:42;48.13;;;20.70;;
32918;SDS011;19280;42.646;21.150;2023-03-14T05:01:09;36.63;;;18.35;;
32918;SDS011;19280;42.646;21.150;2023-03-14T05:03:35;40.67;;;18.98;;
32918;SDS011;19280;42.646;21.150;2023-03-14T05:06:03;42.88;;;19.88;;
32918;SDS011;19280;42.646;21.150;2023-03-14T05:08:29;37.38;;;17.38;;
32918;SDS011;19280;42.646;21.150;2023-03-14T05:10:55;45.53;;;17.63;;
32918;SDS011;19280;42.646;21.150;2023-03-14T05:13:21;35.78;;;18.10;;
32918;SDS011;19280;42.646;21.150;2023-03-14T05:15:47;40.08;;;17.05;;
32918;SDS011;19280;42.646;21.150;2023-03-14T05:18:15;40.25;;;19.63;;
32918;SDS011;19280;42.646;21.150;2023-03-14T05:20:41;46.20;;;21.92;;
32918;SDS011;19280;42.646;21.150;2023-03-14T05:23:10;53.85;;;23.13;;
32918;SDS011;19280;42.646;21.150;2023-03-14T05:25:36;40.45;;;19.80;;
32918;SDS011;19280;42.646;21.150;2023-03-14T05:28:02;46.08;;;20.10;;
32918;SDS011;19280;42.646;21.150;2023-03-14T05:30:28;43.03;;;22.95;;
32918;SDS011;19280;42.646;21.150;2023-03-14T05:32:55;52.42;;;21.52;;
32918;SDS011;19280;42.646;21.150;2023-03-14T05:35:22;48.65;;;21.30;;
32918;SDS011;19280;42.646;21.150;2023-03-14T05:37:48;44.15;;;20.10;;
32918;SDS011;19280;42.646;21.150;2023-03-14T05:40:14;46.88;;;20.20;;
32918;SDS011;19280;42.646;21.150;2023-03-14T05:42:40;47.45;;;22.15;;
32918;SDS011;19280;42.646;21.150;2023-03-14T05:45:06;51.72;;;21.92;;
32918;SDS011;19280;42.646;21.150;2023-03-14T05:47:32;41.15;;;21.45;;
32918;SDS011;19280;42.646;21.150;2023-03-14T05:49:58;51.03;;;23.10;;
32918;SDS011;19280;42.646;21.150;2023-03-14T05:52:24;53.88;;;24.88;;
32918;SDS011;19280;42.646;21.150;2023-03-14T05:54:50;54.22;;;23.63;;
32918;SDS011;19280;42.646;21.150;2023-03-14T05:57:16;51.92;;;24.17;;
32918;SDS011;19280;42.646;21.150;2023-03-14T05:59:42;52.63;;;24.02;;
32918;SDS011;19280;42.646;21.150;2023-03-14T06:02:08;54.45;;;24.35;;
32918;SDS011;19280;42.646;21.150;2023-03-14T06:04:34;41.25;;;21.30;;
32918;SDS011;19280;42.646;21.150;2023-03-14T06:07:00;54.10;;;25.27;;
32918;SDS011;19280;42.646;21.150;2023-03-14T06:09:28;37.95;;;21.08;;
32918;SDS011;19280;42.646;21.150;2023-03-14T06:11:54;38.25;;;19.88;;
32918;SDS011;19280;42.646;21.150;2023-03-14T06:14:20;39.60;;;17.10;;
32918;SDS011;19280;42.646;21.150;2023-03-14T06:16:46;31.80;;;15.55;;
32918;SDS011;19280;42.646;21.150;2023-03-14T06:19:15;33.58;;;16.65;;
32918;SDS011;19280;42.646;21.150;2023-03-14T06:21:41;104.07;;;45.40;;
32918;SDS011;19280;42.646;21.150;2023-03-14T06:24:08;115.47;;;51.80;;
32918;SDS011;19280;42.646;21.150;2023-03-14T06:26:34;88.70;;;43.53;;
32918;SDS011;19280;42.646;21.150;2023-03-14T06:29:00;67.05;;;30.33;;
32918;SDS011;19280;42.646;21.150;2023-03-14T06:31:28;38.38;;;21.38;;
32918;SDS011;19280;42.646;21.150;2023-03-14T06:33:55;61.58;;;29.05;;
32918;SDS011;19280;42.646;21.150;2023-03-14T06:36:21;34.47;;;18.25;;
32918;SDS011;19280;42.646;21.150;2023-03-14T06:38:47;94.82;;;39.75;;
32918;SDS011;19280;42.646;21.150;2023-03-14T06:41:13;63.53;;;27.73;;
32918;SDS011;19280;42.646;21.150;2023-03-14T06:43:39;95.78;;;35.25;;
32918;SDS011;19280;42.646;21.150;2023-03-14T06:46:05;34.80;;;17.10;;
32918;SDS011;19280;42.646;21.150;2023-03-14T06:48:31;42.55;;;17.77;;
32918;SDS011;19280;42.646;21.150;2023-03-14T06:50:57;142.27;;;47.25;;
32918;SDS011;19280;42.646;21.150;2023-03-14T06:53:23;208.07;;;69.53;;
32918;SDS011;19280;42.646;21.150;2023-03-14T06:55:49;160.25;;;50.10;;
32918;SDS011;19280;42.646;21.150;2023-03-14T06:58:15;123.55;;;45.15;;
32918;SDS011;19280;42.646;21.150;2023-03-14T07:00:41;121.45;;;46.00;;
32918;SDS011;19280;42.646;21.150;2023-03-14T07:03:07;57.83;;;21.50;;
32918;SDS011;19280;42.646;21.150;2023-03-14T07:05:34;90.78;;;38.28;;
32918;SDS011;19280;42.646;21.150;2023-03-14T07:08:00;105.85;;;43.75;;
32918;SDS011;19280;42.646;21.150;2023-03-14T07:10:26;103.85;;;44.75;;
32918;SDS011;19280;42.646;21.150;2023-03-14T07:12:52;94.65;;;37.05;;
32918;SDS011;19280;42.646;21.150;2023-03-14T07:15:19;86.03;;;34.10;;
32918;SDS011;19280;42.646;21.150;2023-03-14T07:17:46;86.00;;;35.58;;
32918;SDS011;19280;42.646;21.150;2023-03-14T07:20:13;84.38;;;36.72;;
32918;SDS011;19280;42.646;21.150;2023-03-14T07:22:39;86.40;;;39.38;;
32918;SDS011;19280;42.646;21.150;2023-03-14T07:25:05;76.10;;;37.80;;
32918;SDS011;19280;42.646;21.150;2023-03-14T07:27:31;77.45;;;35.67;;
32918;SDS011;19280;42.646;21.150;2023-03-14T07:29:57;67.93;;;31.92;;
32918;SDS011;19280;42.646;21.150;2023-03-14T07:32:25;23.10;;;13.15;;
32918;SDS011;19280;42.646;21.150;2023-03-14T07:34:51;22.50;;;13.43;;
32918;SDS011;19280;42.646;21.150;2023-03-14T07:37:17;31.80;;;12.40;;
32918;SDS011;19280;42.646;21.150;2023-03-14T07:39:43;37.38;;;16.08;;
32918;SDS011;19280;42.646;21.150;2023-03-14T07:42:09;26.92;;;13.07;;
32918;SDS011;19280;42.646;21.150;2023-03-14T07:44:36;25.30;;;12.57;;
32918;SDS011;19280;42.646;21.150;2023-03-14T07:47:07;16.65;;;9.18;;
32918;SDS011;19280;42.646;21.150;2023-03-14T07:49:33;23.38;;;13.20;;
32918;SDS011;19280;42.646;21.150;2023-03-14T07:51:59;29.45;;;16.48;;
32918;SDS011;19280;42.646;21.150;2023-03-14T07:54:25;29.95;;;18.98;;
32918;SDS011;19280;42.646;21.150;2023-03-14T07:56:51;21.65;;;13.40;;
32918;SDS011;19280;42.646;21.150;2023-03-14T07:59:18;14.88;;;10.00;;
32918;SDS011;19280;42.646;21.150;2023-03-14T08:01:44;23.13;;;13.32;;
32918;SDS011;19280;42.646;21.150;2023-03-14T08:04:10;16.80;;;9.38;;
32918;SDS011;19280;42.646;21.150;2023-03-14T08:06:36;18.20;;;9.30;;
32918;SDS011;19280;42.646;21.150;2023-03-14T08:09:04;15.13;;;8.65;;
32918;SDS011;19280;42.646;21.150;2023-03-14T08:11:30;19.77;;;9.70;;
32918;SDS011;19280;42.646;21.150;2023-03-14T08:13:56;25.33;;;13.25;;
32918;SDS011;19280;42.646;21.150;2023-03-14T08:16:22;39.03;;;20.50;;
32918;SDS011;19280;42.646;21.150;2023-03-14T08:18:50;38.42;;;19.48;;
32918;SDS011;19280;42.646;21.150;2023-03-14T08:21:17;23.13;;;12.13;;
32918;SDS011;19280;42.646;21.150;2023-03-14T08:23:43;16.27;;;9.75;;
32918;SDS011;19280;42.646;21.150;2023-03-14T08:26:09;16.52;;;8.90;;
32918;SDS011;19280;42.646;21.150;2023-03-14T08:28:35;11.10;;;7.40;;
32918;SDS011;19280;42.646;21.150;2023-03-14T08:31:01;12.93;;;7.60;;
32918;SDS011;19280;42.646;21.150;2023-03-14T08:33:28;10.05;;;6.47;;
32918;SDS011;19280;42.646;21.150;2023-03-14T08:35:56;11.57;;;6.70;;
32918;SDS011;19280;42.646;21.150;2023-03-14T08:38:23;14.07;;;7.70;;
32918;SDS011;19280;42.646;21.150;2023-03-14T08:40:54;11.82;;;7.47;;
32918;SDS011;19280;42.646;21.150;2023-03-14T08:43:21;15.82;;;7.65;;
32918;SDS011;19280;42.646;21.150;2023-03-14T08:45:48;9.55;;;5.85;;
32918;SDS011;19280;42.646;21.150;2023-03-14T08:48:14;15.95;;;6.88;;
32918;SDS011;19280;42.646;21.150;2023-03-14T08:50:40;11.48;;;6.07;;
32918;SDS011;19280;42.646;21.150;2023-03-14T08:53:06;20.85;;;10.38;;
32918;SDS011;19280;42.646;21.150;2023-03-14T08:55:32;21.00;;;8.90;;
32918;SDS011;19280;42.646;21.150;2023-03-14T08:57:58;17.20;;;5.50;;
32918;SDS011;19280;42.646;21.150;2023-03-14T09:00:24;11.15;;;6.35;;
32918;SDS011;19280;42.646;21.150;2023-03-14T09:02:50;11.75;;;6.00;;
32918;SDS011;19280;42.646;21.150;2023-03-14T09:05:16;10.25;;;4.95;;
32918;SDS011;19280;42.646;21.150;2023-03-14T09:07:43;11.63;;;5.53;;
32918;SDS011;19280;42.646;21.150;2023-03-14T09:10:10;11.25;;;5.28;;
32918;SDS011;19280;42.646;21.150;2023-03-14T09:12:36;8.75;;;5.13;;
32918;SDS011;19280;42.646;21.150;2023-03-14T09:15:07;7.95;;;4.95;;
32918;SDS011;19280;42.646;21.150;2023-03-14T09:17:34;9.50;;;5.40;;
32918;SDS011;19280;42.646;21.150;2023-03-14T09:20:00;7.32;;;4.68;;
32918;SDS011;19280;42.646;21.150;2023-03-14T09:22:26;13.20;;;5.03;;
32918;SDS011;19280;42.646;21.150;2023-03-14T09:24:52;14.07;;;5.18;;
32918;SDS011;19280;42.646;21.150;2023-03-14T09:27:20;14.50;;;5.47;;
32918;SDS011;19280;42.646;21.150;2023-03-14T09:29:47;9.20;;;5.18;;
32918;SDS011;19280;42.646;21.150;2023-03-14T09:32:13;10.70;;;4.55;;
32918;SDS011;19280;42.646;21.150;2023-03-14T09:34:40;9.02;;;4.60;;
32918;SDS011;19280;42.646;21.150;2023-03-14T09:37:06;11.43;;;5.05;;
32918;SDS011;19280;42.646;21.150;2023-03-14T09:39:32;9.30;;;4.95;;
32918;SDS011;19280;42.646;21.150;2023-03-14T09:41:58;11.18;;;4.53;;
32918;SDS011;19280;42.646;21.150;2023-03-14T09:44:28;7.10;;;4.53;;
32918;SDS011;19280;42.646;21.150;2023-03-14T09:47:00;13.70;;;4.82;;
32918;SDS011;19280;42.646;21.150;2023-03-14T09:49:28;8.88;;;5.28;;
32918;SDS011;19280;42.646;21.150;2023-03-14T09:57:19;11.82;;;5.05;;
32918;SDS011;19280;42.646;21.150;2023-03-14T09:59:47;8.52;;;4.97;;
32918;SDS011;19280;42.646;21.150;2023-03-14T10:02:21;9.15;;;4.00;;
32918;SDS011;19280;42.646;21.150;2023-03-14T10:04:48;5.88;;;3.83;;
32918;SDS011;19280;42.646;21.150;2023-03-14T10:07:15;8.95;;;4.53;;
32918;SDS011;19280;42.646;21.150;2023-03-14T10:09:45;11.38;;;5.93;;
32918;SDS011;19280;42.646;21.150;2023-03-14T10:12:12;10.30;;;4.50;;
32918;SDS011;19280;42.646;21.150;2023-03-14T10:14:49;9.55;;;5.10;;
32918;SDS011;19280;42.646;21.150;2023-03-14T10:17:17;7.55;;;4.82;;
32918;SDS011;19280;42.646;21.150;2023-03-14T10:19:59;8.30;;;4.30;;
32918;SDS011;19280;42.646;21.150;2023-03-14T10:24:52;15.13;;;6.35;;
32918;SDS011;19280;42.646;21.150;2023-03-14T10:27:20;9.25;;;3.95;;
32918;SDS011;19280;42.646;21.150;2023-03-14T10:29:53;11.65;;;5.63;;
32918;SDS011;19280;42.646;21.150;2023-03-14T10:32:20;10.35;;;6.25;;
32918;SDS011;19280;42.646;21.150;2023-03-14T10:35:03;13.75;;;4.97;;
32918;SDS011;19280;42.646;21.150;2023-03-14T10:37:29;12.93;;;4.90;;
32918;SDS011;19280;42.646;21.150;2023-03-14T10:39:58;10.25;;;5.97;;
32918;SDS011;19280;42.646;21.150;2023-03-14T10:42:30;6.90;;;3.90;;
32918;SDS011;19280;42.646;21.150;2023-03-14T10:45:00;9.10;;;5.05;;
32918;SDS011;19280;42.646;21.150;2023-03-14T10:47:27;14.52;;;6.68;;
32918;SDS011;19280;42.646;21.150;2023-03-14T10:49:54;7.63;;;5.00;;
32918;SDS011;19280;42.646;21.150;2023-03-14T10:52:27;9.63;;;3.70;;
32918;SDS011;19280;42.646;21.150;2023-03-14T10:54:56;9.73;;;5.03;;
32918;SDS011;19280;42.646;21.150;2023-03-14T10:57:23;9.48;;;5.35;;
32918;SDS011;19280;42.646;21.150;2023-03-14T10:59:50;6.03;;;4.72;;
32918;SDS011;19280;42.646;21.150;2023-03-14T11:07:40;5.28;;;3.13;;
32918;SDS011;19280;42.646;21.150;2023-03-14T11:12:41;7.93;;;3.83;;
32918;SDS011;19280;42.646;21.150;2023-03-14T11:22:39;6.70;;;3.63;;
32918;SDS011;19280;42.646;21.150;2023-03-14T11:27:52;7.85;;;3.20;;
32918;SDS011;19280;42.646;21.150;2023-03-14T11:33:24;6.80;;;3.35;;
32918;SDS011;19280;42.646;21.150;2023-03-14T11:36:04;5.53;;;2.58;;
32918;SDS011;19280;42.646;21.150;2023-03-14T11:38:38;6.82;;;3.20;;
32918;SDS011;19280;42.646;21.150;2023-03-14T11:41:09;4.93;;;2.45;;
32918;SDS011;19280;42.646;21.150;2023-03-14T11:43:41;8.35;;;2.95;;
32918;SDS011;19280;42.646;21.150;2023-03-14T11:46:20;3.70;;;2.20;;
32918;SDS011;19280;42.646;21.150;2023-03-14T11:51:29;3.50;;;2.20;;
32918;SDS011;19280;42.646;21.150;2023-03-14T11:54:07;5.75;;;2.42;;
32918;SDS011;19280;42.646;21.150;2023-03-14T11:56:39;9.52;;;2.88;;
32918;SDS011;19280;42.646;21.150;2023-03-14T11:59:13;12.50;;;5.25;;
32918;SDS011;19280;42.646;21.150;2023-03-14T12:01:52;11.05;;;3.13;;
32918;SDS011;19280;42.646;21.150;2023-03-14T12:04:38;5.28;;;2.95;;
32918;SDS011;19280;42.646;21.150;2023-03-14T12:07:12;5.85;;;2.67;;
32918;SDS011;19280;42.646;21.150;2023-03-14T12:09:41;8.90;;;3.15;;
32918;SDS011;19280;42.646;21.150;2023-03-14T12:12:10;6.65;;;2.50;;
32918;SDS011;19280;42.646;21.150;2023-03-14T12:14:37;5.35;;;3.00;;
32918;SDS011;19280;42.646;21.150;2023-03-14T12:17:20;3.90;;;2.60;;
32918;SDS011;19280;42.646;21.150;2023-03-14T12:19:46;4.30;;;2.80;;
32918;SDS011;19280;42.646;21.150;2023-03-14T12:30:15;7.85;;;2.78;;
32918;SDS011;19280;42.646;21.150;2023-03-14T12:33:08;4.72;;;2.67;;
32918;SDS011;19280;42.646;21.150;2023-03-14T12:35:34;6.40;;;3.53;;
32918;SDS011;19280;42.646;21.150;2023-03-14T12:38:02;6.68;;;2.83;;
32918;SDS011;19280;42.646;21.150;2023-03-14T12:40:32;9.85;;;3.03;;
32918;SDS011;19280;42.646;21.150;2023-03-14T12:43:02;5.68;;;2.63;;
32918;SDS011;19280;42.646;21.150;2023-03-14T12:45:32;5.90;;;2.70;;
32918;SDS011;19280;42.646;21.150;2023-03-14T12:53:32;10.75;;;3.55;;
32918;SDS011;19280;42.646;21.150;2023-03-14T12:56:05;4.28;;;2.75;;
32918;SDS011;19280;42.646;21.150;2023-03-14T13:01:14;8.25;;;2.45;;
32918;SDS011;19280;42.646;21.150;2023-03-14T13:03:57;8.38;;;2.45;;
32918;SDS011;19280;42.646;21.150;2023-03-14T13:12:14;6.80;;;3.33;;
32918;SDS011;19280;42.646;21.150;2023-03-14T13:14:45;6.50;;;3.50;;
32918;SDS011;19280;42.646;21.150;2023-03-14T13:17:13;4.88;;;2.47;;
32918;SDS011;19280;42.646;21.150;2023-03-14T13:19:39;6.00;;;3.22;;
32918;SDS011;19280;42.646;21.150;2023-03-14T13:22:19;7.47;;;3.45;;
32918;SDS011;19280;42.646;21.150;2023-03-14T13:24:46;8.18;;;3.80;;
32918;SDS011;19280;42.646;21.150;2023-03-14T13:27:20;8.25;;;3.20;;
32918;SDS011;19280;42.646;21.150;2023-03-14T13:29:49;7.93;;;3.08;;
32918;SDS011;19280;42.646;21.150;2023-03-14T13:32:17;5.82;;;3.05;;
32918;SDS011;19280;42.646;21.150;2023-03-14T13:34:43;7.13;;;3.60;;
32918;SDS011;19280;42.646;21.150;2023-03-14T13:37:22;10.00;;;4.07;;
32918;SDS011;19280;42.646;21.150;2023-03-14T13:39:49;8.27;;;3.40;;
32918;SDS011;19280;42.646;21.150;2023-03-14T13:42:35;6.00;;;2.97;;
32918;SDS011;19280;42.646;21.150;2023-03-14T13:45:02;6.28;;;3.22;;
32918;SDS011;19280;42.646;21.150;2023-03-14T13:47:28;11.27;;;4.15;;
32918;SDS011;19280;42.646;21.150;2023-03-14T13:49:55;14.05;;;3.78;;
32918;SDS011;19280;42.646;21.150;2023-03-14T13:52:21;11.48;;;4.95;;
32918;SDS011;19280;42.646;21.150;2023-03-14T13:54:52;11.60;;;4.93;;
32918;SDS011;19280;42.646;21.150;2023-03-14T13:57:18;9.48;;;3.50;;
32918;SDS011;19280;42.646;21.150;2023-03-14T13:59:45;5.53;;;2.22;;
32918;SDS011;19280;42.646;21.150;2023-03-14T14:02:26;7.50;;;3.10;;
32918;SDS011;19280;42.646;21.150;2023-03-14T14:04:56;7.80;;;2.70;;
32918;SDS011;19280;42.646;21.150;2023-03-14T14:07:23;5.40;;;3.00;;
32918;SDS011;19280;42.646;21.150;2023-03-14T14:09:52;4.22;;;2.58;;
32918;SDS011;19280;42.646;21.150;2023-03-14T14:12:25;7.07;;;2.78;;
32918;SDS011;19280;42.646;21.150;2023-03-14T14:14:55;12.75;;;3.53;;
32918;SDS011;19280;42.646;21.150;2023-03-14T14:17:28;4.47;;;2.38;;
32918;SDS011;19280;42.646;21.150;2023-03-14T14:19:55;5.50;;;2.50;;
32918;SDS011;19280;42.646;21.150;2023-03-14T14:22:22;6.10;;;3.17;;
32918;SDS011;19280;42.646;21.150;2023-03-14T14:24:48;3.08;;;2.08;;
32918;SDS011;19280;42.646;21.150;2023-03-14T14:30:06;8.90;;;3.22;;
32918;SDS011;19280;42.646;21.150;2023-03-14T14:32:38;6.32;;;2.50;;
32918;SDS011;19280;42.646;21.150;2023-03-14T14:35:05;9.30;;;4.68;;
32918;SDS011;19280;42.646;21.150;2023-03-14T14:37:32;11.95;;;3.10;;
32918;SDS011;19280;42.646;21.150;2023-03-14T14:40:00;7.55;;;3.28;;
32918;SDS011;19280;42.646;21.150;2023-03-14T14:42:28;4.72;;;2.50;;
32918;SDS011;19280;42.646;21.150;2023-03-14T14:44:55;9.38;;;3.15;;
32918;SDS011;19280;42.646;21.150;2023-03-14T14:47:24;12.90;;;4.43;;
32918;SDS011;19280;42.646;21.150;2023-03-14T14:49:51;6.03;;;2.95;;
32918;SDS011;19280;42.646;21.150;2023-03-14T14:52:18;9.07;;;3.03;;
32918;SDS011;19280;42.646;21.150;2023-03-14T14:54:52;8.75;;;3.60;;
32918;SDS011;19280;42.646;21.150;2023-03-14T14:57:23;13.27;;;4.53;;
32918;SDS011;19280;42.646;21.150;2023-03-14T14:59:50;12.55;;;4.15;;
32918;SDS011;19280;42.646;21.150;2023-03-14T15:02:27;10.93;;;4.53;;
32918;SDS011;19280;42.646;21.150;2023-03-14T15:04:54;6.15;;;3.42;;
32918;SDS011;19280;42.646;21.150;2023-03-14T15:07:20;10.38;;;5.43;;
32918;SDS011;19280;42.646;21.150;2023-03-14T15:09:46;15.05;;;10.02;;
32918;SDS011;19280;42.646;21.150;2023-03-14T15:12:12;24.77;;;15.95;;
32918;SDS011;19280;42.646;21.150;2023-03-14T15:14:38;14.20;;;6.70;;
32918;SDS011;19280;42.646;21.150;2023-03-14T15:17:08;16.85;;;7.32;;
32918;SDS011;19280;42.646;21.150;2023-03-14T15:19:35;16.10;;;5.85;;
32918;SDS011;19280;42.646;21.150;2023-03-14T15:22:01;12.45;;;5.15;;
32918;SDS011;19280;42.646;21.150;2023-03-14T15:24:27;17.52;;;6.95;;
32918;SDS011;19280;42.646;21.150;2023-03-14T15:26:53;17.80;;;6.78;;